createdAt,value
2022-08-26T00:00:27.560Z,16.43
2022-08-26T00:05:56.217Z,16.30
2022-08-26T00:11:26.335Z,16.12
2022-08-26T00:16:52.240Z,16.17
2022-08-26T00:28:02.601Z,15.99
2022-08-26T00:33:24.973Z,15.89
2022-08-26T00:38:49.168Z,15.88
2022-08-26T00:44:12.010Z,15.96
2022-08-26T00:49:40.490Z,16.09
2022-08-26T00:55:05.468Z,15.89
2022-08-26T01:00:31.010Z,16.02
2022-08-26T01:05:56.991Z,15.98
2022-08-26T01:11:21.870Z,15.92
2022-08-26T01:16:45.004Z,15.89
2022-08-26T01:22:12.490Z,16.04
2022-08-26T01:27:36.259Z,16.18
2022-08-26T01:33:02.470Z,16.00
2022-08-26T01:38:25.250Z,15.75
2022-08-26T01:43:51.810Z,15.73
2022-08-26T01:49:16.070Z,15.74
2022-08-26T01:54:38.199Z,15.65
2022-08-26T02:00:03.389Z,15.59
2022-08-26T02:05:33.210Z,15.58
2022-08-26T02:10:57.220Z,15.54
2022-08-26T02:16:23.162Z,15.51
2022-08-26T02:21:51.313Z,15.45
2022-08-26T02:27:15.450Z,15.20
2022-08-26T02:32:38.211Z,14.90
2022-08-26T02:38:03.121Z,14.99
2022-08-26T02:43:32.860Z,15.32
2022-08-26T02:48:55.550Z,15.35
2022-08-26T02:54:19.591Z,15.70
2022-08-26T02:59:42.459Z,15.83
2022-08-26T03:05:05.689Z,15.71
2022-08-26T03:10:27.760Z,15.85
2022-08-26T03:15:50.194Z,16.02
2022-08-26T03:21:16.170Z,16.09
2022-08-26T03:26:40.719Z,16.20
2022-08-26T03:32:17.330Z,16.20
2022-08-26T03:37:40.000Z,16.36
2022-08-26T03:43:03.974Z,16.48
2022-08-26T03:48:26.131Z,16.58
2022-08-26T03:53:48.689Z,16.67
2022-08-26T03:59:10.639Z,16.80
2022-08-26T04:04:32.781Z,16.88
2022-08-26T04:09:58.942Z,16.91
2022-08-26T04:15:22.279Z,17.24
2022-08-26T04:20:44.820Z,17.51
2022-08-26T04:26:08.135Z,17.52
2022-08-26T04:31:34.435Z,18.96
2022-08-26T04:37:03.912Z,19.32
2022-08-26T04:42:30.728Z,19.97
2022-08-26T04:47:57.240Z,20.26
2022-08-26T04:53:22.721Z,20.53
2022-08-26T04:58:46.040Z,20.55
2022-08-26T05:04:08.875Z,21.23
2022-08-26T05:09:37.219Z,21.43
2022-08-26T05:15:01.000Z,22.15
2022-08-26T05:20:26.066Z,22.73
2022-08-26T05:25:52.763Z,22.77
2022-08-26T05:31:20.990Z,23.53
2022-08-26T05:36:42.881Z,23.91
2022-08-26T05:42:08.892Z,24.04
2022-08-26T05:47:31.811Z,24.47
2022-08-26T05:52:59.680Z,24.67
2022-08-26T05:58:23.410Z,25.45
2022-08-26T06:03:48.985Z,25.80
2022-08-26T06:09:11.439Z,25.89
2022-08-26T06:14:33.640Z,26.18
2022-08-26T06:19:56.860Z,26.54
2022-08-26T06:25:39.322Z,26.82
2022-08-26T06:31:03.041Z,27.24
2022-08-26T06:36:28.500Z,27.56
2022-08-26T06:41:51.591Z,27.86
2022-08-26T06:47:13.563Z,28.03
2022-08-26T06:52:35.479Z,27.98
2022-08-26T06:57:58.882Z,28.40
2022-08-26T07:03:22.661Z,28.68
2022-08-26T07:08:44.580Z,28.81
2022-08-26T07:14:08.420Z,29.03
2022-08-26T07:19:31.741Z,29.17
2022-08-26T07:24:54.041Z,29.16
2022-08-26T07:30:19.781Z,29.28
2022-08-26T07:35:43.730Z,29.37
2022-08-26T07:41:07.002Z,29.58
2022-08-26T07:46:33.121Z,29.59
2022-08-26T07:51:56.749Z,29.52
2022-08-26T07:57:19.302Z,29.76
2022-08-26T08:02:47.121Z,29.81
2022-08-26T08:08:26.339Z,30.26
2022-08-26T08:13:52.350Z,30.09
2022-08-26T08:19:18.912Z,29.96
2022-08-26T08:24:43.405Z,30.10
2022-08-26T08:30:08.055Z,30.55
2022-08-26T08:35:29.864Z,30.67
2022-08-26T08:40:52.171Z,30.82
2022-08-26T08:46:17.637Z,30.93
2022-08-26T08:51:59.821Z,30.92
2022-08-26T08:57:53.709Z,30.94
2022-08-26T09:03:37.739Z,31.04
2022-08-26T09:09:03.361Z,31.10
2022-08-26T09:14:26.110Z,31.23
2022-08-26T09:19:53.249Z,31.23
2022-08-26T09:25:18.646Z,31.39
2022-08-26T09:30:40.913Z,31.19
2022-08-26T09:36:37.800Z,31.45
2022-08-26T09:42:09.588Z,31.47
2022-08-26T09:47:54.001Z,31.19
2022-08-26T09:53:30.530Z,31.39
2022-08-26T09:58:59.839Z,31.43
2022-08-26T10:04:35.614Z,31.47
2022-08-26T10:09:59.080Z,31.43
2022-08-26T10:15:36.689Z,31.46
2022-08-26T10:21:31.499Z,31.38
2022-08-26T10:27:12.651Z,31.78
2022-08-26T10:32:41.515Z,31.83
2022-08-26T10:38:12.521Z,31.81
2022-08-26T10:43:42.952Z,31.74
2022-08-26T10:49:10.722Z,31.76
2022-08-26T10:55:01.793Z,31.89
2022-08-26T11:01:10.438Z,31.80
2022-08-26T11:06:38.337Z,31.77
2022-08-26T11:12:06.417Z,31.60
2022-08-26T11:17:47.502Z,31.38
2022-08-26T11:23:22.990Z,31.37
2022-08-26T11:28:52.202Z,31.07
2022-08-26T11:34:15.403Z,30.86
2022-08-26T11:39:57.158Z,31.29
2022-08-26T11:45:41.188Z,31.37
2022-08-26T11:51:11.701Z,31.27
2022-08-26T11:56:37.548Z,31.46
2022-08-26T12:02:01.912Z,31.65
2022-08-26T12:07:35.979Z,31.44
2022-08-26T12:13:01.321Z,31.44
2022-08-26T12:18:30.146Z,31.47
2022-08-26T12:23:58.480Z,31.21
2022-08-26T12:29:28.702Z,31.41
2022-08-26T12:34:51.310Z,31.30
2022-08-26T12:40:36.633Z,31.09
2022-08-26T12:46:02.602Z,31.02
2022-08-26T12:51:32.283Z,30.98
2022-08-26T12:56:54.802Z,30.94
2022-08-26T13:02:37.072Z,30.67
2022-08-26T13:08:28.780Z,30.73
2022-08-26T13:13:53.881Z,30.58
2022-08-26T13:19:21.093Z,30.46
2022-08-26T13:24:55.721Z,30.36
2022-08-26T13:30:25.978Z,29.83
2022-08-26T13:35:50.420Z,29.83
2022-08-26T13:41:29.100Z,29.85
2022-08-26T13:46:55.320Z,29.77
2022-08-26T13:52:17.669Z,29.92
2022-08-26T13:57:52.000Z,30.02
2022-08-26T14:03:15.266Z,29.65
2022-08-26T14:08:39.460Z,29.94
2022-08-26T14:14:02.480Z,29.83
2022-08-26T14:19:28.060Z,29.72
2022-08-26T14:25:22.462Z,29.74
2022-08-26T14:30:48.080Z,29.78
2022-08-26T14:36:28.593Z,29.72
2022-08-26T14:41:55.012Z,29.58
2022-08-26T14:47:17.030Z,29.47
2022-08-26T14:52:57.604Z,29.30
2022-08-26T14:58:20.062Z,29.10
2022-08-26T15:03:43.090Z,28.91
2022-08-26T15:09:06.513Z,28.70
2022-08-26T15:14:32.845Z,28.40
2022-08-26T15:19:55.528Z,28.20
2022-08-26T15:25:18.900Z,27.70
2022-08-26T15:30:42.452Z,27.42
2022-08-26T15:36:13.877Z,27.38
2022-08-26T15:41:38.391Z,27.08
2022-08-26T15:47:01.292Z,26.92
2022-08-26T15:52:23.231Z,26.59
2022-08-26T15:57:45.300Z,26.50
2022-08-26T16:03:16.471Z,26.09
2022-08-26T16:08:52.892Z,25.85
2022-08-26T16:14:15.300Z,25.66
2022-08-26T16:19:40.380Z,25.44
2022-08-26T16:25:21.667Z,25.30
2022-08-26T16:30:47.615Z,25.27
2022-08-26T16:36:10.914Z,25.15
2022-08-26T16:41:33.233Z,24.98
2022-08-26T16:46:58.712Z,24.79
2022-08-26T16:52:21.351Z,24.62
2022-08-26T16:57:47.952Z,24.25
2022-08-26T17:03:10.744Z,24.27
2022-08-26T17:08:33.131Z,24.03
2022-08-26T17:13:55.163Z,23.62
2022-08-26T17:19:18.012Z,23.64
2022-08-26T17:24:40.208Z,23.51
2022-08-26T17:30:03.147Z,23.21
2022-08-26T17:35:26.288Z,22.93
2022-08-26T17:40:48.514Z,22.65
2022-08-26T17:46:12.342Z,22.54
2022-08-26T17:51:34.913Z,22.32
2022-08-26T17:56:59.220Z,22.37
2022-08-26T18:02:22.668Z,21.92
2022-08-26T18:07:45.480Z,21.93
2022-08-26T18:13:07.545Z,21.56
2022-08-26T18:18:29.972Z,21.57
2022-08-26T18:23:53.533Z,21.49
2022-08-26T18:29:17.341Z,21.42
2022-08-26T18:34:40.140Z,21.29
2022-08-26T18:40:02.426Z,21.36
2022-08-26T18:45:26.582Z,21.34
2022-08-26T18:50:49.399Z,20.96
2022-08-26T18:56:13.265Z,21.15
2022-08-26T19:01:41.069Z,20.95
2022-08-26T19:07:03.319Z,20.96
2022-08-26T19:12:27.213Z,20.98
2022-08-26T19:17:49.650Z,20.68
2022-08-26T19:23:30.799Z,21.00
2022-08-26T19:28:54.351Z,20.94
2022-08-26T19:34:17.550Z,20.90
2022-08-26T19:39:43.032Z,20.68
2022-08-26T19:45:07.940Z,20.65
2022-08-26T19:50:40.290Z,20.51
2022-08-26T19:56:02.422Z,20.43
2022-08-26T20:01:25.064Z,20.58
2022-08-26T20:06:47.152Z,20.53
2022-08-26T20:12:13.631Z,20.40
2022-08-26T20:17:36.991Z,20.43
2022-08-26T20:22:59.294Z,20.22
2022-08-26T20:28:21.411Z,20.19
2022-08-26T20:33:46.388Z,20.07
2022-08-26T20:39:09.090Z,19.95
2022-08-26T20:44:31.492Z,19.80
2022-08-26T20:49:53.951Z,19.61
2022-08-26T20:55:16.115Z,19.44
2022-08-26T21:00:39.348Z,19.52
2022-08-26T21:06:01.570Z,19.42
2022-08-26T21:11:26.270Z,19.35
2022-08-26T21:16:48.508Z,19.17
2022-08-26T21:22:10.440Z,19.31
2022-08-26T21:27:32.883Z,19.37
2022-08-26T21:32:54.970Z,19.09
2022-08-26T21:38:17.640Z,18.75
2022-08-26T21:43:40.809Z,18.40
2022-08-26T21:49:05.359Z,18.48
2022-08-26T21:54:27.310Z,18.27
2022-08-26T21:59:49.927Z,18.15
2022-08-26T22:05:12.280Z,18.30
2022-08-26T22:10:34.728Z,17.88
2022-08-26T22:15:58.849Z,18.05
2022-08-26T22:21:24.884Z,18.01
2022-08-26T22:26:48.749Z,17.87
2022-08-26T22:32:10.915Z,17.74
2022-08-26T22:37:33.250Z,17.81
2022-08-26T22:42:58.715Z,17.49
2022-08-26T22:48:25.850Z,17.21
2022-08-26T22:53:48.290Z,17.49
2022-08-26T22:59:11.632Z,17.25
2022-08-26T23:04:34.771Z,17.25
2022-08-26T23:09:57.630Z,17.47
2022-08-26T23:15:21.760Z,17.20
2022-08-26T23:20:43.800Z,17.40
2022-08-26T23:26:08.293Z,17.67
2022-08-26T23:31:30.534Z,17.69
2022-08-26T23:36:53.863Z,17.16
2022-08-26T23:42:16.230Z,17.26
2022-08-26T23:47:38.411Z,16.96
2022-08-26T23:53:06.227Z,17.02
2022-08-26T23:58:28.269Z,17.21
